sensor_id;sensor_type;location;lat;lon;timestamp;temperature;humidity
5508;DHT22;2776;51.046;6.772;2023-02-08T00:01:06;-1.30;99.90
5508;DHT22;2776;51.046;6.772;2023-02-08T00:03:34;-1.30;99.90
5508;DHT22;2776;51.046;6.772;2023-02-08T00:06:02;-1.30;99.90
5508;DHT22;2776;51.046;6.772;2023-02-08T00:08:29;-1.40;99.90
5508;DHT22;2776;51.046;6.772;2023-02-08T00:10:56;-1.40;99.90
5508;DHT22;2776;51.046;6.772;2023-02-08T00:13:24;-1.40;99.90
5508;DHT22;2776;51.046;6.772;2023-02-08T00:15:52;-1.30;99.90
5508;DHT22;2776;51.046;6.772;2023-02-08T00:18:19;-1.20;99.90
5508;DHT22;2776;51.046;6.772;2023-02-08T00:20:48;-1.30;99.90
5508;DHT22;2776;51.046;6.772;2023-02-08T00:23:15;-1.30;99.90
5508;DHT22;2776;51.046;6.772;2023-02-08T00:25:42;-1.30;99.90
5508;DHT22;2776;51.046;6.772;2023-02-08T00:28:12;-1.30;99.90
5508;DHT22;2776;51.046;6.772;2023-02-08T00:30:40;-1.30;99.90
5508;DHT22;2776;51.046;6.772;2023-02-08T00:33:07;-1.30;99.90
5508;DHT22;2776;51.046;6.772;2023-02-08T00:35:34;-1.30;99.90
5508;DHT22;2776;51.046;6.772;2023-02-08T00:38:02;-1.30;99.90
5508;DHT22;2776;51.046;6.772;2023-02-08T00:40:29;-1.30;99.90
5508;DHT22;2776;51.046;6.772;2023-02-08T00:42:55;-1.30;99.90
5508;DHT22;2776;51.046;6.772;2023-02-08T00:45:22;-1.30;99.90
5508;DHT22;2776;51.046;6.772;2023-02-08T00:47:49;-1.30;99.90
5508;DHT22;2776;51.046;6.772;2023-02-08T00:50:16;-1.40;99.90
5508;DHT22;2776;51.046;6.772;2023-02-08T00:52:43;-1.50;99.90
5508;DHT22;2776;51.046;6.772;2023-02-08T00:55:11;-1.50;99.90
5508;DHT22;2776;51.046;6.772;2023-02-08T00:57:37;-1.50;99.90
5508;DHT22;2776;51.046;6.772;2023-02-08T01:00:05;-1.50;99.90
5508;DHT22;2776;51.046;6.772;2023-02-08T01:02:33;-1.50;99.90
5508;DHT22;2776;51.046;6.772;2023-02-08T01:05:00;-1.50;99.90
5508;DHT22;2776;51.046;6.772;2023-02-08T01:07:27;-1.60;99.90
5508;DHT22;2776;51.046;6.772;2023-02-08T01:09:53;-1.60;99.90
5508;DHT22;2776;51.046;6.772;2023-02-08T01:12:21;-1.60;99.90
5508;DHT22;2776;51.046;6.772;2023-02-08T01:14:49;-1.60;99.90
5508;DHT22;2776;51.046;6.772;2023-02-08T01:17:16;-1.70;99.90
5508;DHT22;2776;51.046;6.772;2023-02-08T01:19:42;-1.70;99.90
5508;DHT22;2776;51.046;6.772;2023-02-08T01:22:09;-1.70;99.90
5508;DHT22;2776;51.046;6.772;2023-02-08T01:24:36;-1.70;99.90
5508;DHT22;2776;51.046;6.772;2023-02-08T01:27:03;-1.70;99.90
5508;DHT22;2776;51.046;6.772;2023-02-08T01:29:31;-1.70;99.90
5508;DHT22;2776;51.046;6.772;2023-02-08T01:31:57;-1.70;99.90
5508;DHT22;2776;51.046;6.772;2023-02-08T01:34:24;-1.70;99.90
5508;DHT22;2776;51.046;6.772;2023-02-08T01:36:51;-1.70;99.90
5508;DHT22;2776;51.046;6.772;2023-02-08T01:39:17;-1.80;99.90
5508;DHT22;2776;51.046;6.772;2023-02-08T01:41:44;-1.80;99.90
5508;DHT22;2776;51.046;6.772;2023-02-08T01:47:17;-1.90;99.90
5508;DHT22;2776;51.046;6.772;2023-02-08T01:49:44;-1.90;99.90
5508;DHT22;2776;51.046;6.772;2023-02-08T01:52:13;-1.90;99.90
5508;DHT22;2776;51.046;6.772;2023-02-08T01:54:43;-1.90;99.90
5508;DHT22;2776;51.046;6.772;2023-02-08T01:57:12;-1.90;99.90
5508;DHT22;2776;51.046;6.772;2023-02-08T01:59:41;-1.90;99.90
5508;DHT22;2776;51.046;6.772;2023-02-08T02:02:13;-1.90;99.90
5508;DHT22;2776;51.046;6.772;2023-02-08T02:04:43;-1.90;99.90
5508;DHT22;2776;51.046;6.772;2023-02-08T02:07:10;-2.00;99.90
5508;DHT22;2776;51.046;6.772;2023-02-08T02:09:43;-2.00;99.90
5508;DHT22;2776;51.046;6.772;2023-02-08T02:12:11;-2.10;99.90
5508;DHT22;2776;51.046;6.772;2023-02-08T02:14:39;-2.10;99.90
5508;DHT22;2776;51.046;6.772;2023-02-08T02:17:06;-2.10;99.90
5508;DHT22;2776;51.046;6.772;2023-02-08T02:19:39;-2.10;99.90
5508;DHT22;2776;51.046;6.772;2023-02-08T02:22:26;-2.10;99.90
5508;DHT22;2776;51.046;6.772;2023-02-08T02:28:28;-2.10;99.90
5508;DHT22;2776;51.046;6.772;2023-02-08T02:31:32;-2.10;99.90
5508;DHT22;2776;51.046;6.772;2023-02-08T02:34:06;-2.10;99.90
5508;DHT22;2776;51.046;6.772;2023-02-08T02:36:40;-2.20;99.90
5508;DHT22;2776;51.046;6.772;2023-02-08T02:39:16;-2.20;99.90
5508;DHT22;2776;51.046;6.772;2023-02-08T02:41:53;-2.20;99.90
5508;DHT22;2776;51.046;6.772;2023-02-08T02:44:45;-2.20;99.90
5508;DHT22;2776;51.046;6.772;2023-02-08T02:47:22;-2.20;99.90
5508;DHT22;2776;51.046;6.772;2023-02-08T02:49:53;-2.20;99.90
5508;DHT22;2776;51.046;6.772;2023-02-08T02:52:25;-2.20;99.90
5508;DHT22;2776;51.046;6.772;2023-02-08T02:55:02;-2.30;99.90
5508;DHT22;2776;51.046;6.772;2023-02-08T02:57:31;-2.40;99.90
5508;DHT22;2776;51.046;6.772;2023-02-08T02:59:59;-2.40;99.90
5508;DHT22;2776;51.046;6.772;2023-02-08T03:02:27;-2.50;99.90
5508;DHT22;2776;51.046;6.772;2023-02-08T03:04:55;-2.50;99.90
5508;DHT22;2776;51.046;6.772;2023-02-08T03:07:40;-2.50;99.90
5508;DHT22;2776;51.046;6.772;2023-02-08T03:10:24;-2.50;99.90
5508;DHT22;2776;51.046;6.772;2023-02-08T03:12:59;-2.50;99.90
5508;DHT22;2776;51.046;6.772;2023-02-08T03:15:32;-2.50;99.90
5508;DHT22;2776;51.046;6.772;2023-02-08T03:18:15;-2.60;99.90
5508;DHT22;2776;51.046;6.772;2023-02-08T03:20:50;-2.50;99.90
5508;DHT22;2776;51.046;6.772;2023-02-08T03:23:20;-2.50;99.90
5508;DHT22;2776;51.046;6.772;2023-02-08T03:25:50;-2.50;99.90
5508;DHT22;2776;51.046;6.772;2023-02-08T03:28:23;-2.40;99.90
5508;DHT22;2776;51.046;6.772;2023-02-08T03:30:57;-2.40;99.90
5508;DHT22;2776;51.046;6.772;2023-02-08T03:33:33;-2.40;99.90
5508;DHT22;2776;51.046;6.772;2023-02-08T03:36:03;-2.30;99.90
5508;DHT22;2776;51.046;6.772;2023-02-08T03:38:34;-2.30;99.90
5508;DHT22;2776;51.046;6.772;2023-02-08T03:41:05;-2.30;99.90
5508;DHT22;2776;51.046;6.772;2023-02-08T03:43:36;-2.20;99.90
5508;DHT22;2776;51.046;6.772;2023-02-08T03:46:07;-2.20;99.90
5508;DHT22;2776;51.046;6.772;2023-02-08T03:48:40;-2.20;99.90
5508;DHT22;2776;51.046;6.772;2023-02-08T03:51:11;-2.20;99.90
5508;DHT22;2776;51.046;6.772;2023-02-08T03:53:41;-2.20;99.90
5508;DHT22;2776;51.046;6.772;2023-02-08T03:56:13;-2.20;99.90
5508;DHT22;2776;51.046;6.772;2023-02-08T03:58:45;-2.20;99.90
5508;DHT22;2776;51.046;6.772;2023-02-08T04:01:16;-2.10;99.90
5508;DHT22;2776;51.046;6.772;2023-02-08T04:03:46;-2.20;99.90
5508;DHT22;2776;51.046;6.772;2023-02-08T04:06:17;-2.10;99.90
5508;DHT22;2776;51.046;6.772;2023-02-08T04:08:44;-2.10;99.90
5508;DHT22;2776;51.046;6.772;2023-02-08T04:11:11;-2.10;99.90
5508;DHT22;2776;51.046;6.772;2023-02-08T04:13:38;-2.10;99.90
5508;DHT22;2776;51.046;6.772;2023-02-08T04:16:05;-2.00;99.90
5508;DHT22;2776;51.046;6.772;2023-02-08T04:18:32;-2.10;99.90
5508;DHT22;2776;51.046;6.772;2023-02-08T04:21:00;-2.10;99.90
5508;DHT22;2776;51.046;6.772;2023-02-08T04:23:27;-2.10;99.90
5508;DHT22;2776;51.046;6.772;2023-02-08T04:25:53;-2.00;99.90
5508;DHT22;2776;51.046;6.772;2023-02-08T04:28:20;-2.00;99.90
5508;DHT22;2776;51.046;6.772;2023-02-08T04:30:47;-2.00;99.90
5508;DHT22;2776;51.046;6.772;2023-02-08T04:33:14;-2.00;99.90
5508;DHT22;2776;51.046;6.772;2023-02-08T04:35:41;-2.10;99.90
5508;DHT22;2776;51.046;6.772;2023-02-08T04:38:09;-2.10;99.90
5508;DHT22;2776;51.046;6.772;2023-02-08T04:40:36;-2.10;99.90
5508;DHT22;2776;51.046;6.772;2023-02-08T04:43:03;-2.00;99.90
5508;DHT22;2776;51.046;6.772;2023-02-08T04:45:29;-2.10;99.90
5508;DHT22;2776;51.046;6.772;2023-02-08T04:47:57;-2.10;99.90
5508;DHT22;2776;51.046;6.772;2023-02-08T04:50:26;-2.10;99.90
5508;DHT22;2776;51.046;6.772;2023-02-08T04:52:52;-2.10;99.90
5508;DHT22;2776;51.046;6.772;2023-02-08T04:55:20;-2.10;99.90
5508;DHT22;2776;51.046;6.772;2023-02-08T04:57:47;-2.10;99.90
5508;DHT22;2776;51.046;6.772;2023-02-08T05:00:15;-2.10;99.90
5508;DHT22;2776;51.046;6.772;2023-02-08T05:02:42;-2.10;99.90
5508;DHT22;2776;51.046;6.772;2023-02-08T05:05:08;-2.10;99.90
5508;DHT22;2776;51.046;6.772;2023-02-08T05:07:35;-2.10;99.90
5508;DHT22;2776;51.046;6.772;2023-02-08T05:10:02;-2.10;99.90
5508;DHT22;2776;51.046;6.772;2023-02-08T05:12:30;-2.10;99.90
5508;DHT22;2776;51.046;6.772;2023-02-08T05:14:57;-2.10;99.90
5508;DHT22;2776;51.046;6.772;2023-02-08T05:17:24;-2.10;99.90
5508;DHT22;2776;51.046;6.772;2023-02-08T05:19:50;-2.10;99.90
5508;DHT22;2776;51.046;6.772;2023-02-08T05:22:17;-2.10;99.90
5508;DHT22;2776;51.046;6.772;2023-02-08T05:24:44;-2.10;99.90
5508;DHT22;2776;51.046;6.772;2023-02-08T05:27:11;-2.10;99.90
5508;DHT22;2776;51.046;6.772;2023-02-08T05:29:39;-2.10;99.90
5508;DHT22;2776;51.046;6.772;2023-02-08T05:32:06;-2.10;99.90
5508;DHT22;2776;51.046;6.772;2023-02-08T05:34:33;-2.10;99.90
5508;DHT22;2776;51.046;6.772;2023-02-08T05:37:00;-2.10;99.90
5508;DHT22;2776;51.046;6.772;2023-02-08T05:39:26;-2.10;99.90
5508;DHT22;2776;51.046;6.772;2023-02-08T05:41:53;-2.10;99.90
5508;DHT22;2776;51.046;6.772;2023-02-08T05:44:20;-2.10;99.90
5508;DHT22;2776;51.046;6.772;2023-02-08T05:46:48;-2.20;99.90
5508;DHT22;2776;51.046;6.772;2023-02-08T05:49:15;-2.30;99.90
5508;DHT22;2776;51.046;6.772;2023-02-08T05:51:41;-2.30;99.90
5508;DHT22;2776;51.046;6.772;2023-02-08T05:54:08;-2.30;99.90
5508;DHT22;2776;51.046;6.772;2023-02-08T05:56:35;-2.30;99.90
5508;DHT22;2776;51.046;6.772;2023-02-08T05:59:02;-2.40;99.90
5508;DHT22;2776;51.046;6.772;2023-02-08T06:01:29;-2.40;99.90
5508;DHT22;2776;51.046;6.772;2023-02-08T06:03:59;-2.40;99.90
5508;DHT22;2776;51.046;6.772;2023-02-08T06:06:25;-2.50;99.90
5508;DHT22;2776;51.046;6.772;2023-02-08T06:08:53;-2.60;99.90
5508;DHT22;2776;51.046;6.772;2023-02-08T06:11:20;-2.50;99.90
5508;DHT22;2776;51.046;6.772;2023-02-08T06:13:47;-2.50;99.90
5508;DHT22;2776;51.046;6.772;2023-02-08T06:16:14;-2.50;99.90
5508;DHT22;2776;51.046;6.772;2023-02-08T06:18:41;-2.50;99.90
5508;DHT22;2776;51.046;6.772;2023-02-08T06:21:09;-2.50;99.90
5508;DHT22;2776;51.046;6.772;2023-02-08T06:23:37;-2.50;99.90
5508;DHT22;2776;51.046;6.772;2023-02-08T06:26:04;-2.50;99.90
5508;DHT22;2776;51.046;6.772;2023-02-08T06:28:30;-2.40;99.90
5508;DHT22;2776;51.046;6.772;2023-02-08T06:30:57;-2.40;99.90
5508;DHT22;2776;51.046;6.772;2023-02-08T06:33:24;-2.30;99.90
5508;DHT22;2776;51.046;6.772;2023-02-08T06:35:51;-2.30;99.90
5508;DHT22;2776;51.046;6.772;2023-02-08T06:38:19;-2.30;99.90
5508;DHT22;2776;51.046;6.772;2023-02-08T06:40:47;-2.30;99.90
5508;DHT22;2776;51.046;6.772;2023-02-08T06:43:14;-2.30;99.90
5508;DHT22;2776;51.046;6.772;2023-02-08T06:45:43;-2.30;99.90
5508;DHT22;2776;51.046;6.772;2023-02-08T06:48:10;-2.30;99.90
5508;DHT22;2776;51.046;6.772;2023-02-08T06:50:37;-2.40;99.90
5508;DHT22;2776;51.046;6.772;2023-02-08T06:53:03;-2.30;99.90
5508;DHT22;2776;51.046;6.772;2023-02-08T06:55:32;-2.40;99.90
5508;DHT22;2776;51.046;6.772;2023-02-08T06:57:58;-2.40;99.90
5508;DHT22;2776;51.046;6.772;2023-02-08T07:00:25;-2.40;99.90
5508;DHT22;2776;51.046;6.772;2023-02-08T07:02:52;-2.50;99.90
5508;DHT22;2776;51.046;6.772;2023-02-08T07:05:19;-2.40;99.90
5508;DHT22;2776;51.046;6.772;2023-02-08T07:07:46;-2.40;99.90
5508;DHT22;2776;51.046;6.772;2023-02-08T07:10:13;-2.40;99.90
5508;DHT22;2776;51.046;6.772;2023-02-08T07:12:42;-2.40;99.90
5508;DHT22;2776;51.046;6.772;2023-02-08T07:15:09;-2.30;99.90
5508;DHT22;2776;51.046;6.772;2023-02-08T07:17:37;-2.30;99.90
5508;DHT22;2776;51.046;6.772;2023-02-08T07:20:05;-2.30;99.90
5508;DHT22;2776;51.046;6.772;2023-02-08T07:22:31;-2.30;99.90
5508;DHT22;2776;51.046;6.772;2023-02-08T07:24:58;-2.30;99.90
5508;DHT22;2776;51.046;6.772;2023-02-08T07:27:25;-2.20;99.90
5508;DHT22;2776;51.046;6.772;2023-02-08T07:29:53;-2.20;99.90
5508;DHT22;2776;51.046;6.772;2023-02-08T07:32:20;-2.20;99.90
5508;DHT22;2776;51.046;6.772;2023-02-08T07:34:46;-2.20;99.90
5508;DHT22;2776;51.046;6.772;2023-02-08T07:37:13;-2.20;99.90
5508;DHT22;2776;51.046;6.772;2023-02-08T07:39:40;-2.20;99.90
5508;DHT22;2776;51.046;6.772;2023-02-08T07:42:07;-2.20;99.90
5508;DHT22;2776;51.046;6.772;2023-02-08T07:44:35;-2.20;99.90
5508;DHT22;2776;51.046;6.772;2023-02-08T07:47:03;-2.10;99.90
5508;DHT22;2776;51.046;6.772;2023-02-08T07:49:30;-2.00;99.90
5508;DHT22;2776;51.046;6.772;2023-02-08T07:51:57;-1.90;99.90
5508;DHT22;2776;51.046;6.772;2023-02-08T07:54:24;-1.30;99.90
5508;DHT22;2776;51.046;6.772;2023-02-08T07:56:51;-0.40;99.90
5508;DHT22;2776;51.046;6.772;2023-02-08T07:59:18;0.70;99.90
5508;DHT22;2776;51.046;6.772;2023-02-08T08:01:45;1.80;99.90
5508;DHT22;2776;51.046;6.772;2023-02-08T08:04:13;2.50;99.90
5508;DHT22;2776;51.046;6.772;2023-02-08T08:06:40;3.10;99.90
5508;DHT22;2776;51.046;6.772;2023-02-08T08:09:07;3.50;99.90
5508;DHT22;2776;51.046;6.772;2023-02-08T08:11:34;3.80;99.90
5508;DHT22;2776;51.046;6.772;2023-02-08T08:14:00;4.30;99.90
5508;DHT22;2776;51.046;6.772;2023-02-08T08:16:27;4.80;99.90
5508;DHT22;2776;51.046;6.772;2023-02-08T08:18:54;5.20;99.90
5508;DHT22;2776;51.046;6.772;2023-02-08T08:21:22;5.10;96.80
5508;DHT22;2776;51.046;6.772;2023-02-08T08:23:49;4.90;95.70
5508;DHT22;2776;51.046;6.772;2023-02-08T08:26:18;4.60;95.80
5508;DHT22;2776;51.046;6.772;2023-02-08T08:28:45;4.30;97.90
5508;DHT22;2776;51.046;6.772;2023-02-08T08:31:15;4.10;99.90
5508;DHT22;2776;51.046;6.772;2023-02-08T08:33:42;4.40;99.90
5508;DHT22;2776;51.046;6.772;2023-02-08T08:36:09;4.80;99.90
5508;DHT22;2776;51.046;6.772;2023-02-08T08:38:37;5.60;98.40
5508;DHT22;2776;51.046;6.772;2023-02-08T08:41:09;6.30;94.10
5508;DHT22;2776;51.046;6.772;2023-02-08T08:43:36;6.70;85.40
5508;DHT22;2776;51.046;6.772;2023-02-08T08:46:04;7.00;78.60
5508;DHT22;2776;51.046;6.772;2023-02-08T08:48:32;7.20;73.90
5508;DHT22;2776;51.046;6.772;2023-02-08T08:50:59;7.10;71.70
5508;DHT22;2776;51.046;6.772;2023-02-08T08:53:26;6.60;69.20
5508;DHT22;2776;51.046;6.772;2023-02-08T08:55:54;6.30;71.10
5508;DHT22;2776;51.046;6.772;2023-02-08T08:58:21;6.20;75.20
5508;DHT22;2776;51.046;6.772;2023-02-08T09:00:48;6.30;75.40
5508;DHT22;2776;51.046;6.772;2023-02-08T09:03:14;7.00;74.50
5508;DHT22;2776;51.046;6.772;2023-02-08T09:05:41;7.40;70.20
5508;DHT22;2776;51.046;6.772;2023-02-08T09:08:08;7.90;66.80
5508;DHT22;2776;51.046;6.772;2023-02-08T09:10:35;7.90;63.50
5508;DHT22;2776;51.046;6.772;2023-02-08T09:13:03;8.30;60.40
5508;DHT22;2776;51.046;6.772;2023-02-08T09:15:29;8.30;58.60
5508;DHT22;2776;51.046;6.772;2023-02-08T09:17:56;7.50;59.40
5508;DHT22;2776;51.046;6.772;2023-02-08T09:20:23;7.50;61.10
5508;DHT22;2776;51.046;6.772;2023-02-08T09:22:50;7.10;60.90
5508;DHT22;2776;51.046;6.772;2023-02-08T09:25:18;6.90;59.60
5508;DHT22;2776;51.046;6.772;2023-02-08T09:27:44;6.60;60.20
5508;DHT22;2776;51.046;6.772;2023-02-08T09:30:13;6.50;61.80
5508;DHT22;2776;51.046;6.772;2023-02-08T09:32:40;6.20;64.00
5508;DHT22;2776;51.046;6.772;2023-02-08T09:35:07;6.10;62.10
5508;DHT22;2776;51.046;6.772;2023-02-08T09:37:34;6.10;63.70
5508;DHT22;2776;51.046;6.772;2023-02-08T09:40:01;6.20;64.60
5508;DHT22;2776;51.046;6.772;2023-02-08T09:42:32;6.40;64.30
5508;DHT22;2776;51.046;6.772;2023-02-08T09:45:19;6.60;59.30
5508;DHT22;2776;51.046;6.772;2023-02-08T09:47:55;7.30;59.80
5508;DHT22;2776;51.046;6.772;2023-02-08T09:50:29;7.90;57.30
5508;DHT22;2776;51.046;6.772;2023-02-08T09:53:02;8.10;51.90
5508;DHT22;2776;51.046;6.772;2023-02-08T09:55:35;7.70;51.40
5508;DHT22;2776;51.046;6.772;2023-02-08T09:58:17;8.00;48.10
5508;DHT22;2776;51.046;6.772;2023-02-08T10:00:47;8.10;46.60
5508;DHT22;2776;51.046;6.772;2023-02-08T10:03:28;8.00;47.90
5508;DHT22;2776;51.046;6.772;2023-02-08T10:05:56;7.80;46.20
5508;DHT22;2776;51.046;6.772;2023-02-08T10:08:23;7.10;47.90
5508;DHT22;2776;51.046;6.772;2023-02-08T10:10:54;6.40;46.60
5508;DHT22;2776;51.046;6.772;2023-02-08T10:13:32;6.00;47.70
5508;DHT22;2776;51.046;6.772;2023-02-08T10:16:13;5.40;48.30
5508;DHT22;2776;51.046;6.772;2023-02-08T10:18:48;5.10;52.30
5508;DHT22;2776;51.046;6.772;2023-02-08T10:21:29;5.00;52.00
5508;DHT22;2776;51.046;6.772;2023-02-08T10:24:24;5.00;50.80
5508;DHT22;2776;51.046;6.772;2023-02-08T10:26:59;4.90;51.80
5508;DHT22;2776;51.046;6.772;2023-02-08T10:29:54;4.90;51.30
5508;DHT22;2776;51.046;6.772;2023-02-08T10:32:35;4.90;50.10
5508;DHT22;2776;51.046;6.772;2023-02-08T10:35:10;5.00;51.90
5508;DHT22;2776;51.046;6.772;2023-02-08T10:37:39;5.00;54.00
5508;DHT22;2776;51.046;6.772;2023-02-08T10:40:18;5.10;55.10
5508;DHT22;2776;51.046;6.772;2023-02-08T10:42:54;5.20;52.50
5508;DHT22;2776;51.046;6.772;2023-02-08T10:45:29;5.20;52.70
5508;DHT22;2776;51.046;6.772;2023-02-08T10:48:02;5.40;53.80
5508;DHT22;2776;51.046;6.772;2023-02-08T10:50:34;5.40;48.90
5508;DHT22;2776;51.046;6.772;2023-02-08T10:53:01;5.30;48.20
5508;DHT22;2776;51.046;6.772;2023-02-08T10:55:30;5.30;48.40
5508;DHT22;2776;51.046;6.772;2023-02-08T10:57:59;5.30;46.70
5508;DHT22;2776;51.046;6.772;2023-02-08T11:00:28;5.40;47.60
5508;DHT22;2776;51.046;6.772;2023-02-08T11:03:00;5.30;49.50
5508;DHT22;2776;51.046;6.772;2023-02-08T11:05:32;5.40;47.40
5508;DHT22;2776;51.046;6.772;2023-02-08T11:08:06;5.40;45.80
5508;DHT22;2776;51.046;6.772;2023-02-08T11:10:34;5.40;45.20
5508;DHT22;2776;51.046;6.772;2023-02-08T11:13:04;5.40;45.80
5508;DHT22;2776;51.046;6.772;2023-02-08T11:15:37;5.50;46.40
5508;DHT22;2776;51.046;6.772;2023-02-08T11:18:06;5.50;46.00
5508;DHT22;2776;51.046;6.772;2023-02-08T11:20:40;5.60;45.50
5508;DHT22;2776;51.046;6.772;2023-02-08T11:23:19;5.60;44.50
5508;DHT22;2776;51.046;6.772;2023-02-08T11:25:47;5.50;44.70
5508;DHT22;2776;51.046;6.772;2023-02-08T11:28:31;5.60;45.60
5508;DHT22;2776;51.046;6.772;2023-02-08T11:31:01;5.80;45.20
5508;DHT22;2776;51.046;6.772;2023-02-08T11:33:29;5.90;44.00
5508;DHT22;2776;51.046;6.772;2023-02-08T11:36:06;5.90;43.40
5508;DHT22;2776;51.046;6.772;2023-02-08T11:38:35;5.90;42.50
5508;DHT22;2776;51.046;6.772;2023-02-08T11:41:14;5.90;41.60
5508;DHT22;2776;51.046;6.772;2023-02-08T11:43:41;5.90;43.10
5508;DHT22;2776;51.046;6.772;2023-02-08T11:46:09;6.00;41.20
5508;DHT22;2776;51.046;6.772;2023-02-08T11:48:43;6.00;41.40
5508;DHT22;2776;51.046;6.772;2023-02-08T11:51:13;6.00;40.60
5508;DHT22;2776;51.046;6.772;2023-02-08T11:53:45;6.10;42.60
5508;DHT22;2776;51.046;6.772;2023-02-08T11:56:17;6.10;40.70
5508;DHT22;2776;51.046;6.772;2023-02-08T11:58:59;6.20;41.80
5508;DHT22;2776;51.046;6.772;2023-02-08T12:01:28;6.20;41.00
5508;DHT22;2776;51.046;6.772;2023-02-08T12:03:58;6.30;41.80
5508;DHT22;2776;51.046;6.772;2023-02-08T12:06:40;6.40;41.50
5508;DHT22;2776;51.046;6.772;2023-02-08T12:09:21;6.40;41.80
5508;DHT22;2776;51.046;6.772;2023-02-08T12:11:56;6.50;42.00
5508;DHT22;2776;51.046;6.772;2023-02-08T12:14:41;6.50;42.10
5508;DHT22;2776;51.046;6.772;2023-02-08T12:17:26;6.60;40.90
5508;DHT22;2776;51.046;6.772;2023-02-08T12:20:12;6.60;
5508;DHT22;2776;51.046;6.772;2023-02-08T12:22:53;6.70;40.60
5508;DHT22;2776;51.046;6.772;2023-02-08T12:25:26;6.80;38.50
5508;DHT22;2776;51.046;6.772;2023-02-08T12:28:00;6.80;39.20
5508;DHT22;2776;51.046;6.772;2023-02-08T12:30:32;6.80;40.10
5508;DHT22;2776;51.046;6.772;2023-02-08T12:33:17;6.80;37.20
5508;DHT22;2776;51.046;6.772;2023-02-08T12:36:01;6.80;38.50
5508;DHT22;2776;51.046;6.772;2023-02-08T12:38:54;6.90;37.70
5508;DHT22;2776;51.046;6.772;2023-02-08T12:41:45;6.90;36.30
5508;DHT22;2776;51.046;6.772;2023-02-08T12:44:22;6.90;36.40
5508;DHT22;2776;51.046;6.772;2023-02-08T12:47:00;7.00;37.20
5508;DHT22;2776;51.046;6.772;2023-02-08T12:49:52;7.10;35.50
5508;DHT22;2776;51.046;6.772;2023-02-08T12:52:32;7.10;34.40
5508;DHT22;2776;51.046;6.772;2023-02-08T12:55:04;7.20;33.30
5508;DHT22;2776;51.046;6.772;2023-02-08T12:57:35;7.30;34.00
5508;DHT22;2776;51.046;6.772;2023-02-08T13:00:06;7.40;32.90
5508;DHT22;2776;51.046;6.772;2023-02-08T13:02:40;7.40;32.30
5508;DHT22;2776;51.046;6.772;2023-02-08T13:05:15;7.50;33.50
5508;DHT22;2776;51.046;6.772;2023-02-08T13:07:46;7.40;33.20
5508;DHT22;2776;51.046;6.772;2023-02-08T13:10:19;7.50;32.90
5508;DHT22;2776;51.046;6.772;2023-02-08T13:12:53;7.50;31.90
5508;DHT22;2776;51.046;6.772;2023-02-08T13:15:24;7.50;31.30
5508;DHT22;2776;51.046;6.772;2023-02-08T13:17:55;7.40;32.50
5508;DHT22;2776;51.046;6.772;2023-02-08T13:20:30;7.50;31.90
5508;DHT22;2776;51.046;6.772;2023-02-08T13:23:02;7.50;33.70
5508;DHT22;2776;51.046;6.772;2023-02-08T13:25:33;7.60;32.00
5508;DHT22;2776;51.046;6.772;2023-02-08T13:28:02;7.60;31.80
5508;DHT22;2776;51.046;6.772;2023-02-08T13:30:31;7.60;31.20
5508;DHT22;2776;51.046;6.772;2023-02-08T13:33:04;7.50;30.40
5508;DHT22;2776;51.046;6.772;2023-02-08T13:35:38;7.50;30.70
5508;DHT22;2776;51.046;6.772;2023-02-08T13:38:18;7.50;30.70
5508;DHT22;2776;51.046;6.772;2023-02-08T13:40:46;7.50;30.80
5508;DHT22;2776;51.046;6.772;2023-02-08T13:43:24;7.60;31.10
5508;DHT22;2776;51.046;6.772;2023-02-08T13:45:58;7.60;29.80
5508;DHT22;2776;51.046;6.772;2023-02-08T13:48:25;7.60;29.50
5508;DHT22;2776;51.046;6.772;2023-02-08T13:50:53;7.60;29.50
5508;DHT22;2776;51.046;6.772;2023-02-08T13:56:38;7.60;29.80
5508;DHT22;2776;51.046;6.772;2023-02-08T13:59:24;7.70;30.60
5508;DHT22;2776;51.046;6.772;2023-02-08T14:02:25;7.70;30.70
5508;DHT22;2776;51.046;6.772;2023-02-08T14:04:56;7.60;29.70
5508;DHT22;2776;51.046;6.772;2023-02-08T14:07:36;7.60;29.20
5508;DHT22;2776;51.046;6.772;2023-02-08T14:10:24;7.60;29.80
5508;DHT22;2776;51.046;6.772;2023-02-08T14:13:00;7.50;29.20
5508;DHT22;2776;51.046;6.772;2023-02-08T14:15:34;7.50;29.60
5508;DHT22;2776;51.046;6.772;2023-02-08T14:18:03;7.50;30.10
5508;DHT22;2776;51.046;6.772;2023-02-08T14:20:35;7.50;29.70
5508;DHT22;2776;51.046;6.772;2023-02-08T14:23:07;7.50;30.20
5508;DHT22;2776;51.046;6.772;2023-02-08T14:25:47;7.60;30.30
5508;DHT22;2776;51.046;6.772;2023-02-08T14:28:31;7.60;30.20
5508;DHT22;2776;51.046;6.772;2023-02-08T14:31:01;7.60;32.00
5508;DHT22;2776;51.046;6.772;2023-02-08T14:33:32;7.60;32.70
5508;DHT22;2776;51.046;6.772;2023-02-08T14:36:03;7.60;31.50
5508;DHT22;2776;51.046;6.772;2023-02-08T14:41:50;7.60;29.80
5508;DHT22;2776;51.046;6.772;2023-02-08T14:45:03;7.60;30.20
5508;DHT22;2776;51.046;6.772;2023-02-08T14:48:16;7.60;31.20
5508;DHT22;2776;51.046;6.772;2023-02-08T14:50:54;7.50;30.90
5508;DHT22;2776;51.046;6.772;2023-02-08T14:53:38;7.50;30.80
5508;DHT22;2776;51.046;6.772;2023-02-08T14:56:13;7.40;32.10
5508;DHT22;2776;51.046;6.772;2023-02-08T14:58:44;7.40;32.50
5508;DHT22;2776;51.046;6.772;2023-02-08T15:01:17;7.30;31.60
5508;DHT22;2776;51.046;6.772;2023-02-08T15:03:46;7.30;30.80
5508;DHT22;2776;51.046;6.772;2023-02-08T15:09:17;7.30;31.90
5508;DHT22;2776;51.046;6.772;2023-02-08T15:11:48;7.30;32.10
5508;DHT22;2776;51.046;6.772;2023-02-08T15:14:18;7.30;32.50
5508;DHT22;2776;51.046;6.772;2023-02-08T15:16:47;7.20;33.10
5508;DHT22;2776;51.046;6.772;2023-02-08T15:19:21;7.20;33.70
5508;DHT22;2776;51.046;6.772;2023-02-08T15:21:48;7.20;32.40
5508;DHT22;2776;51.046;6.772;2023-02-08T15:24:16;7.20;33.00
5508;DHT22;2776;51.046;6.772;2023-02-08T15:26:44;7.20;33.20
5508;DHT22;2776;51.046;6.772;2023-02-08T15:29:20;7.10;33.60
5508;DHT22;2776;51.046;6.772;2023-02-08T15:31:48;7.10;33.80
5508;DHT22;2776;51.046;6.772;2023-02-08T15:34:16;7.00;34.00
5508;DHT22;2776;51.046;6.772;2023-02-08T15:36:47;7.00;34.10
5508;DHT22;2776;51.046;6.772;2023-02-08T15:39:31;7.00;33.90
5508;DHT22;2776;51.046;6.772;2023-02-08T15:41:59;7.00;33.80
5508;DHT22;2776;51.046;6.772;2023-02-08T15:44:27;6.90;33.20
5508;DHT22;2776;51.046;6.772;2023-02-08T15:46:58;6.90;34.10
5508;DHT22;2776;51.046;6.772;2023-02-08T15:49:29;6.80;34.60
5508;DHT22;2776;51.046;6.772;2023-02-08T15:51:57;6.80;35.00
5508;DHT22;2776;51.046;6.772;2023-02-08T15:54:25;6.80;36.10
5508;DHT22;2776;51.046;6.772;2023-02-08T15:56:55;6.70;35.10
5508;DHT22;2776;51.046;6.772;2023-02-08T15:59:25;6.70;33.70
5508;DHT22;2776;51.046;6.772;2023-02-08T16:01:55;6.50;33.80
5508;DHT22;2776;51.046;6.772;2023-02-08T16:04:23;6.50;34.10
5508;DHT22;2776;51.046;6.772;2023-02-08T16:06:52;6.40;33.80
5508;DHT22;2776;51.046;6.772;2023-02-08T16:09:22;6.40;34.10
5508;DHT22;2776;51.046;6.772;2023-02-08T16:11:52;6.30;34.00
5508;DHT22;2776;51.046;6.772;2023-02-08T16:14:22;6.20;34.40
5508;DHT22;2776;51.046;6.772;2023-02-08T16:16:52;6.20;34.50
5508;DHT22;2776;51.046;6.772;2023-02-08T16:19:25;6.10;34.70
5508;DHT22;2776;51.046;6.772;2023-02-08T16:21:54;6.00;35.50
5508;DHT22;2776;51.046;6.772;2023-02-08T16:24:24;6.00;35.10
5508;DHT22;2776;51.046;6.772;2023-02-08T16:26:57;5.80;35.20
5508;DHT22;2776;51.046;6.772;2023-02-08T16:29:28;5.70;35.60
5508;DHT22;2776;51.046;6.772;2023-02-08T16:32:01;5.60;36.10
5508;DHT22;2776;51.046;6.772;2023-02-08T16:34:32;5.50;36.60
5508;DHT22;2776;51.046;6.772;2023-02-08T16:36:59;5.50;36.60
5508;DHT22;2776;51.046;6.772;2023-02-08T16:39:54;5.40;36.90
5508;DHT22;2776;51.046;6.772;2023-02-08T16:42:29;5.20;37.00
5508;DHT22;2776;51.046;6.772;2023-02-08T16:45:13;5.10;36.50
5508;DHT22;2776;51.046;6.772;2023-02-08T16:47:42;5.10;35.80
5508;DHT22;2776;51.046;6.772;2023-02-08T16:50:12;5.00;35.20